createdAt,value
2022-12-17T00:01:51.034Z,-0.30
2022-12-17T00:04:38.034Z,-0.30
2022-12-17T00:07:23.662Z,-0.20
2022-12-17T00:10:09.009Z,-0.30
2022-12-17T00:12:56.473Z,-0.30
2022-12-17T00:15:42.556Z,-0.20
2022-12-17T00:18:28.823Z,-0.20
2022-12-17T00:21:16.019Z,-0.30
2022-12-17T00:24:01.724Z,-0.30
2022-12-17T00:26:47.768Z,-0.30
2022-12-17T00:29:36.269Z,-0.20
2022-12-17T00:32:24.154Z,-0.20
2022-12-17T00:35:09.784Z,-0.20
2022-12-17T00:37:55.147Z,-0.20
2022-12-17T00:40:42.306Z,-0.20
2022-12-17T00:43:31.684Z,-0.20
2022-12-17T00:46:17.762Z,-0.20
2022-12-17T00:49:09.215Z,-0.20
2022-12-17T00:51:55.187Z,-0.20
2022-12-17T00:54:41.765Z,-0.20
2022-12-17T00:57:27.242Z,-0.20
2022-12-17T01:00:15.132Z,-0.20
2022-12-17T01:03:04.167Z,-0.20
2022-12-17T01:05:49.997Z,-0.20
2022-12-17T01:08:35.294Z,-0.20
2022-12-17T01:11:27.145Z,-0.20
2022-12-17T01:14:13.092Z,-0.20
2022-12-17T01:16:59.603Z,-0.20
2022-12-17T01:19:44.998Z,-0.20
2022-12-17T01:22:30.444Z,-0.20
2022-12-17T01:25:15.674Z,-0.20
2022-12-17T01:28:00.887Z,-0.20
2022-12-17T01:30:47.099Z,-0.20
2022-12-17T01:33:32.324Z,-0.20
2022-12-17T01:36:18.236Z,-0.20
2022-12-17T01:39:03.985Z,-0.20
2022-12-17T01:41:49.172Z,-0.20
2022-12-17T01:45:06.027Z,-0.20
2022-12-17T01:48:08.184Z,-0.20
2022-12-17T01:50:58.017Z,-0.20
2022-12-17T01:53:56.758Z,-0.20
2022-12-17T01:56:44.795Z,-0.20
2022-12-17T01:59:37.032Z,-0.20
2022-12-17T02:02:24.644Z,-0.20
2022-12-17T02:05:10.131Z,-0.20
2022-12-17T02:08:15.833Z,-0.30
2022-12-17T02:11:23.695Z,-0.30
2022-12-17T02:14:40.327Z,-0.30
2022-12-17T02:17:29.780Z,-0.30
2022-12-17T02:20:58.379Z,-0.30
2022-12-17T02:24:07.467Z,-0.30
2022-12-17T02:27:06.686Z,-0.30
2022-12-17T02:29:59.361Z,-0.30
2022-12-17T02:32:46.088Z,-0.40
2022-12-17T02:36:01.551Z,-0.30
2022-12-17T02:38:50.898Z,-0.40
2022-12-17T02:41:46.732Z,-0.30
2022-12-17T02:44:37.102Z,-0.30
2022-12-17T02:47:26.532Z,-0.30
2022-12-17T02:50:14.914Z,-0.30
2022-12-17T02:53:05.602Z,-0.30
2022-12-17T02:55:52.141Z,-0.30
2022-12-17T02:58:37.776Z,-0.40
2022-12-17T03:01:23.473Z,-0.30
2022-12-17T03:04:08.900Z,-0.40
2022-12-17T03:06:54.132Z,-0.40
2022-12-17T03:09:39.539Z,-0.40
2022-12-17T03:12:27.343Z,-0.40
2022-12-17T03:15:15.242Z,-0.40
2022-12-17T03:18:00.532Z,-0.50
2022-12-17T03:20:45.955Z,-0.50
2022-12-17T03:23:31.392Z,-0.50
2022-12-17T03:26:21.879Z,-0.50
2022-12-17T03:29:10.342Z,-0.40
2022-12-17T03:31:55.759Z,-0.40
2022-12-17T03:34:42.676Z,-0.50
2022-12-17T03:37:27.893Z,-0.40
2022-12-17T03:40:15.809Z,-0.40
2022-12-17T03:43:01.440Z,-0.40
2022-12-17T03:45:47.034Z,-0.40
2022-12-17T03:48:37.474Z,-0.50
2022-12-17T03:51:23.069Z,-0.50
2022-12-17T03:54:12.837Z,-0.50
2022-12-17T03:56:58.015Z,-0.50
2022-12-17T03:59:43.422Z,-0.40
2022-12-17T04:02:31.201Z,-0.40
2022-12-17T04:05:20.107Z,-0.40
2022-12-17T04:08:06.872Z,-0.40
2022-12-17T04:10:52.051Z,-0.50
2022-12-17T04:13:41.065Z,-0.50
2022-12-17T04:16:29.665Z,-0.40
2022-12-17T04:19:15.041Z,-0.50
2022-12-17T04:22:02.671Z,-0.40
2022-12-17T04:24:50.484Z,-0.50
2022-12-17T04:27:35.894Z,-0.40
2022-12-17T04:30:21.549Z,-0.40
2022-12-17T04:33:07.206Z,-0.40
2022-12-17T04:35:54.921Z,-0.40
2022-12-17T04:38:53.966Z,-0.40
2022-12-17T04:41:39.731Z,-0.40
2022-12-17T04:44:25.018Z,-0.40
2022-12-17T04:47:12.610Z,-0.50
2022-12-17T04:49:58.077Z,-0.50
2022-12-17T04:52:43.433Z,-0.50
2022-12-17T04:55:28.974Z,-0.50
2022-12-17T04:58:19.791Z,-0.50
2022-12-17T05:01:05.066Z,-0.50
2022-12-17T05:03:50.640Z,-0.50
2022-12-17T05:06:36.013Z,-0.50
2022-12-17T05:09:21.492Z,-0.50
2022-12-17T05:12:07.101Z,-0.50
2022-12-17T05:14:52.385Z,-0.50
2022-12-17T05:17:37.553Z,-0.40
2022-12-17T05:20:23.440Z,-0.50
2022-12-17T05:23:09.019Z,-0.50
2022-12-17T05:25:54.813Z,-0.50
2022-12-17T05:28:40.310Z,-0.50
2022-12-17T05:31:25.643Z,-0.40
2022-12-17T05:34:14.012Z,-0.40
2022-12-17T05:36:59.578Z,-0.50
2022-12-17T05:39:45.094Z,-0.50
2022-12-17T05:42:30.289Z,-0.50
2022-12-17T05:45:15.850Z,-0.50
2022-12-17T05:48:01.441Z,-0.50
2022-12-17T05:50:46.868Z,-0.50
2022-12-17T05:53:32.542Z,-0.50
2022-12-17T05:56:20.131Z,-0.50
2022-12-17T05:59:05.323Z,-0.50
2022-12-17T06:01:53.028Z,-0.50
2022-12-17T06:04:41.013Z,-0.50
2022-12-17T06:07:26.290Z,-0.50
2022-12-17T06:10:11.824Z,-0.50
2022-12-17T06:12:57.400Z,-0.50
2022-12-17T06:15:42.616Z,-0.50
2022-12-17T06:18:30.515Z,-0.40
2022-12-17T06:21:16.195Z,-0.50
2022-12-17T06:24:01.372Z,-0.50
2022-12-17T06:26:46.642Z,-0.50
2022-12-17T06:29:34.637Z,-0.50
2022-12-17T06:32:19.884Z,-0.50
2022-12-17T06:35:05.292Z,-0.50
2022-12-17T06:38:01.246Z,-0.50
2022-12-17T06:40:46.814Z,-0.50
2022-12-17T06:43:34.974Z,-0.50
2022-12-17T06:46:20.780Z,-0.50
2022-12-17T06:49:06.460Z,-0.50
2022-12-17T06:51:51.832Z,-0.50
2022-12-17T06:54:37.078Z,-0.50
2022-12-17T06:57:22.307Z,-0.50
2022-12-17T07:00:07.893Z,-0.50
2022-12-17T07:02:53.211Z,-0.50
2022-12-17T07:05:38.618Z,-0.60
2022-12-17T07:08:26.472Z,-0.60
2022-12-17T07:11:11.905Z,-0.60
2022-12-17T07:13:59.873Z,-0.60
2022-12-17T07:16:47.643Z,-0.60
2022-12-17T07:19:33.058Z,-0.60
2022-12-17T07:22:21.039Z,-0.60
2022-12-17T07:25:06.295Z,-0.60
2022-12-17T07:27:51.859Z,-0.60
2022-12-17T07:30:40.333Z,-0.60
2022-12-17T07:33:27.327Z,-0.60
2022-12-17T07:36:13.719Z,-0.60
2022-12-17T07:38:59.915Z,-0.70
2022-12-17T07:41:45.318Z,-0.70
2022-12-17T07:44:30.565Z,-0.70
2022-12-17T07:47:15.758Z,-0.70
2022-12-17T07:50:01.031Z,-0.70
2022-12-17T07:52:46.430Z,-0.70
2022-12-17T07:55:31.717Z,-0.70
2022-12-17T07:58:22.518Z,-0.70
2022-12-17T08:01:07.939Z,-0.70
2022-12-17T08:03:53.194Z,-0.60
2022-12-17T08:06:39.171Z,-0.60
2022-12-17T08:09:24.685Z,-0.60
2022-12-17T08:12:10.247Z,-0.70
2022-12-17T08:14:55.695Z,-0.70
2022-12-17T08:17:41.276Z,-0.70
2022-12-17T08:20:27.369Z,-0.70
2022-12-17T08:23:19.989Z,-0.60
2022-12-17T08:26:05.545Z,-0.60
2022-12-17T08:28:51.288Z,-0.60
2022-12-17T08:31:39.393Z,-0.60
2022-12-17T08:34:24.919Z,-0.60
2022-12-17T08:37:10.227Z,-0.70
2022-12-17T08:39:57.946Z,-0.70
2022-12-17T08:42:43.840Z,-0.70
2022-12-17T08:45:29.315Z,-0.70
2022-12-17T08:48:25.385Z,-0.70
2022-12-17T08:51:11.731Z,-0.60
2022-12-17T08:53:57.449Z,-0.60
2022-12-17T08:56:52.872Z,-0.60
2022-12-17T08:59:39.706Z,-0.60
2022-12-17T09:02:28.005Z,-0.60
2022-12-17T09:05:13.398Z,-0.50
2022-12-17T09:08:06.054Z,-0.50
2022-12-17T09:10:51.593Z,-0.60
2022-12-17T09:13:37.375Z,-0.60
2022-12-17T09:16:26.008Z,-0.60
2022-12-17T09:19:11.492Z,-0.50
2022-12-17T09:21:57.227Z,-0.50
2022-12-17T09:24:42.581Z,-0.50
2022-12-17T09:27:30.449Z,-0.50
2022-12-17T09:30:16.028Z,-0.50
2022-12-17T09:33:01.595Z,-0.50
2022-12-17T09:35:49.095Z,-0.50
2022-12-17T09:38:37.446Z,-0.50
2022-12-17T09:41:46.689Z,-0.50
2022-12-17T09:44:42.169Z,-0.50
2022-12-17T09:47:39.759Z,-0.50
2022-12-17T09:50:32.099Z,-0.50
2022-12-17T09:53:20.997Z,-0.50
2022-12-17T09:56:09.791Z,-0.50
2022-12-17T09:58:58.485Z,-0.50
2022-12-17T10:01:46.909Z,-0.40
2022-12-17T10:04:55.695Z,-0.40
2022-12-17T10:07:50.673Z,-0.40
2022-12-17T10:10:39.839Z,-0.40
2022-12-17T10:13:34.594Z,-0.40
2022-12-17T10:16:20.600Z,-0.40
2022-12-17T10:19:13.669Z,-0.40
2022-12-17T10:22:02.550Z,-0.40
2022-12-17T10:24:47.931Z,-0.30
2022-12-17T10:27:38.573Z,-0.40
2022-12-17T10:30:33.020Z,-0.40
2022-12-17T10:33:22.876Z,-0.40
2022-12-17T10:36:15.803Z,-0.40
2022-12-17T10:39:01.375Z,-0.40
2022-12-17T10:41:49.523Z,-0.50
2022-12-17T10:44:50.130Z,-0.50
2022-12-17T10:47:43.510Z,-0.50
2022-12-17T10:50:28.854Z,-0.50
2022-12-17T10:53:15.312Z,-0.60
2022-12-17T10:56:13.307Z,-0.50
2022-12-17T10:59:04.647Z,-0.50
2022-12-17T11:01:53.096Z,-0.60
2022-12-17T11:04:43.418Z,-0.60
2022-12-17T11:07:50.400Z,-0.50
2022-12-17T11:10:44.294Z,-0.50
2022-12-17T11:13:46.802Z,-0.40
2022-12-17T11:16:45.026Z,-0.40
2022-12-17T11:19:30.342Z,-0.40
2022-12-17T11:22:23.975Z,-0.40
2022-12-17T11:25:48.768Z,-0.40
2022-12-17T11:28:42.625Z,-0.30
2022-12-17T11:31:36.586Z,-0.30
2022-12-17T11:35:03.629Z,-0.30
2022-12-17T11:38:18.290Z,-0.30
2022-12-17T11:41:48.270Z,-0.30
2022-12-17T11:44:33.670Z,-0.30
2022-12-17T11:47:34.332Z,-0.30
2022-12-17T11:50:37.958Z,-0.30
2022-12-17T11:53:58.854Z,-0.30
2022-12-17T11:57:22.354Z,-0.30
2022-12-17T12:00:31.621Z,-0.40
2022-12-17T12:03:39.262Z,-0.40
2022-12-17T12:06:36.560Z,-0.40
2022-12-17T12:09:39.952Z,-0.40
2022-12-17T12:13:01.152Z,-0.40
2022-12-17T12:16:25.236Z,-0.40
2022-12-17T12:19:40.155Z,-0.40
2022-12-17T12:22:55.623Z,-0.40
2022-12-17T12:26:01.418Z,-0.40
2022-12-17T12:28:58.043Z,-0.40
2022-12-17T12:32:10.321Z,-0.40
2022-12-17T12:34:57.137Z,-0.40
2022-12-17T12:37:45.323Z,-0.50
2022-12-17T12:40:37.473Z,-0.50
2022-12-17T12:43:32.280Z,-0.50
2022-12-17T12:46:26.832Z,-0.50
2022-12-17T12:49:23.843Z,-0.50
2022-12-17T12:52:14.571Z,-0.50
2022-12-17T12:55:05.305Z,-0.50
2022-12-17T12:57:56.775Z,-0.50
2022-12-17T13:00:56.963Z,-0.60
2022-12-17T13:03:50.132Z,-0.60
2022-12-17T13:06:38.920Z,-0.60
2022-12-17T13:09:46.950Z,-0.60
2022-12-17T13:12:26.328Z,-0.60
2022-12-17T13:14:59.417Z,-0.70
2022-12-17T13:17:29.081Z,-0.70
2022-12-17T13:20:04.926Z,-0.70
2022-12-17T13:22:34.089Z,-0.70
2022-12-17T13:25:17.936Z,-0.70
2022-12-17T13:27:45.222Z,-0.70
2022-12-17T13:30:18.061Z,-0.70
2022-12-17T13:32:58.293Z,-0.70
2022-12-17T13:35:33.573Z,-0.70
2022-12-17T13:38:12.024Z,-0.70
2022-12-17T13:40:48.126Z,-0.70
2022-12-17T13:43:26.793Z,-0.70
2022-12-17T13:45:55.720Z,-0.70
2022-12-17T13:48:28.502Z,-0.80
2022-12-17T13:51:02.005Z,-0.70
2022-12-17T13:53:35.062Z,-0.80
2022-12-17T13:56:04.354Z,-0.80
2022-12-17T13:58:34.122Z,-0.80
2022-12-17T14:01:09.992Z,-0.80
2022-12-17T14:04:07.147Z,-0.80
2022-12-17T14:06:31.212Z,-0.80
2022-12-17T14:08:58.808Z,-0.90
2022-12-17T14:11:45.449Z,-0.90
2022-12-17T14:14:19.995Z,-0.90
2022-12-17T14:16:50.795Z,-0.90
2022-12-17T14:19:18.232Z,-0.90
2022-12-17T14:21:45.200Z,-0.90
2022-12-17T14:24:13.796Z,-0.90
2022-12-17T14:26:51.844Z,-0.90
2022-12-17T14:29:29.379Z,-0.90
2022-12-17T14:32:02.074Z,-0.80
2022-12-17T14:34:44.088Z,-0.80
2022-12-17T14:37:21.300Z,-0.80
2022-12-17T14:39:48.834Z,-0.80
2022-12-17T14:42:26.352Z,-0.80
2022-12-17T14:45:01.283Z,-0.80
2022-12-17T14:47:32.271Z,-0.80
2022-12-17T14:50:07.101Z,-0.80
2022-12-17T14:52:47.326Z,-0.80
2022-12-17T14:55:37.435Z,-0.90
2022-12-17T14:58:13.644Z,-0.90
2022-12-17T15:00:42.563Z,-0.90
2022-12-17T15:03:19.122Z,-0.90
2022-12-17T15:05:51.477Z,-1.00
2022-12-17T15:08:20.664Z,-1.00
2022-12-17T15:10:47.560Z,-1.00
2022-12-17T15:13:14.498Z,-1.00
2022-12-17T15:15:41.488Z,-1.10
2022-12-17T15:18:11.651Z,-1.10
2022-12-17T15:20:42.901Z,-1.10
2022-12-17T15:23:21.724Z,-1.10
2022-12-17T15:25:52.784Z,-1.10
2022-12-17T15:28:23.205Z,-1.10
2022-12-17T15:30:50.819Z,-1.10
2022-12-17T15:33:21.067Z,-1.10
2022-12-17T15:35:50.145Z,-1.10
2022-12-17T15:38:17.003Z,-1.10
2022-12-17T15:40:46.004Z,-1.10
2022-12-17T15:43:13.399Z,-1.10
2022-12-17T15:45:42.678Z,-1.10
2022-12-17T15:48:13.649Z,-1.10
2022-12-17T15:50:40.715Z,-1.10
2022-12-17T15:53:08.999Z,-1.10
2022-12-17T15:55:37.321Z,-1.10
2022-12-17T15:58:05.143Z,-1.10
2022-12-17T16:00:32.237Z,-1.10
2022-12-17T16:02:59.368Z,-1.10
2022-12-17T16:05:26.345Z,-1.10
2022-12-17T16:07:53.403Z,-1.10
2022-12-17T16:10:20.455Z,-1.10
2022-12-17T16:12:47.381Z,-1.20
2022-12-17T16:15:14.540Z,-1.20
2022-12-17T16:17:41.454Z,-1.20
2022-12-17T16:20:10.988Z,-1.20
2022-12-17T16:22:38.162Z,-1.20
2022-12-17T16:25:05.472Z,-1.20
2022-12-17T16:27:32.377Z,-1.20
2022-12-17T16:30:04.040Z,-1.20
2022-12-17T16:32:36.548Z,-1.20
2022-12-17T16:35:04.831Z,-1.20
2022-12-17T16:37:32.250Z,-1.20
2022-12-17T16:40:00.449Z,-1.20
2022-12-17T16:42:27.998Z,-1.20
2022-12-17T16:44:57.342Z,-1.30
2022-12-17T16:47:26.423Z,-1.30
2022-12-17T16:49:53.358Z,-1.30
2022-12-17T16:52:20.242Z,-1.30
2022-12-17T16:54:47.160Z,-1.30
2022-12-17T16:57:14.164Z,-1.30
2022-12-17T16:59:41.142Z,-1.30
2022-12-17T17:02:15.552Z,-1.20
2022-12-17T17:04:42.499Z,-1.20
2022-12-17T17:07:09.357Z,-1.20
2022-12-17T17:09:37.500Z,-1.30
2022-12-17T17:12:04.680Z,-1.20
2022-12-17T17:14:31.664Z,-1.30
2022-12-17T17:16:59.491Z,-1.30
2022-12-17T17:19:28.804Z,-1.30
2022-12-17T17:21:55.744Z,-1.30
2022-12-17T17:24:25.567Z,-1.30
2022-12-17T17:26:57.709Z,-1.40
2022-12-17T17:29:25.408Z,-1.40
2022-12-17T17:32:09.936Z,-1.40
2022-12-17T17:34:40.153Z,-1.40
2022-12-17T17:37:07.445Z,-1.30
2022-12-17T17:39:34.715Z,-1.30
2022-12-17T17:42:04.281Z,-1.30
2022-12-17T17:44:34.042Z,-1.30
2022-12-17T17:47:01.298Z,-1.40
2022-12-17T17:49:28.877Z,-1.30
2022-12-17T17:52:12.030Z,-1.40
2022-12-17T17:54:40.286Z,-1.40
2022-12-17T17:57:07.866Z,-1.40
2022-12-17T17:59:34.744Z,-1.40
2022-12-17T18:02:03.336Z,-1.40
2022-12-17T18:04:31.451Z,-1.40
2022-12-17T18:09:47.704Z,-1.40
2022-12-17T18:12:35.652Z,-1.40
2022-12-17T18:15:14.133Z,-1.40
2022-12-17T18:17:45.881Z,-1.40
2022-12-17T18:20:13.295Z,-1.50
2022-12-17T18:22:43.209Z,-1.50
2022-12-17T18:25:10.629Z,-1.50
2022-12-17T18:27:39.829Z,-1.50
2022-12-17T18:30:09.632Z,-1.60
2022-12-17T18:32:39.092Z,-1.60
2022-12-17T18:35:06.480Z,-1.60
2022-12-17T18:37:38.343Z,-1.70
2022-12-17T18:40:07.002Z,-1.70
2022-12-17T18:42:52.777Z,-1.70
2022-12-17T18:45:19.728Z,-1.70
2022-12-17T18:47:49.899Z,-1.60
2022-12-17T18:50:16.723Z,-1.60
2022-12-17T18:52:48.326Z,-1.60
2022-12-17T18:55:15.262Z,-1.60
2022-12-17T18:57:44.220Z,-1.70
2022-12-17T19:00:11.756Z,-1.70
2022-12-17T19:02:38.793Z,-1.70
2022-12-17T19:05:06.017Z,-1.70
2022-12-17T19:07:33.083Z,-1.70
2022-12-17T19:10:02.586Z,-1.80
2022-12-17T19:12:29.396Z,-1.80
2022-12-17T19:14:56.232Z,-1.90
2022-12-17T19:17:23.079Z,-1.90
2022-12-17T19:19:49.920Z,-1.90
2022-12-17T19:22:16.846Z,-1.80
2022-12-17T19:24:43.699Z,-1.80
2022-12-17T19:27:10.581Z,-1.80
2022-12-17T19:29:37.363Z,-1.90
2022-12-17T19:32:04.582Z,-1.90
2022-12-17T19:34:32.352Z,-1.90
2022-12-17T19:36:59.276Z,-1.90
2022-12-17T19:39:28.475Z,-1.90
2022-12-17T19:41:55.348Z,-1.90
2022-12-17T19:44:25.108Z,-2.00
2022-12-17T19:46:51.970Z,-2.00
2022-12-17T19:49:18.817Z,-2.00
2022-12-17T19:51:45.623Z,-2.00
2022-12-17T19:54:15.026Z,-2.00
2022-12-17T19:56:42.791Z,-2.00
2022-12-17T19:59:10.572Z,-2.00
2022-12-17T20:01:39.427Z,-2.00
2022-12-17T20:04:06.216Z,-2.10
2022-12-17T20:06:33.675Z,-2.10
2022-12-17T20:09:01.409Z,-2.10
2022-12-17T20:11:34.452Z,-2.20
2022-12-17T20:14:06.752Z,-2.20
2022-12-17T20:16:38.243Z,-2.20
2022-12-17T20:19:06.699Z,-2.20
2022-12-17T20:21:33.587Z,-2.20
2022-12-17T20:24:00.401Z,-2.20
2022-12-17T20:26:27.185Z,-2.20
2022-12-17T20:28:54.762Z,-2.20
2022-12-17T20:31:21.637Z,-2.20
2022-12-17T20:33:51.012Z,-2.20
2022-12-17T20:36:18.872Z,-2.30
2022-12-17T20:38:45.690Z,-2.40
2022-12-17T20:41:13.762Z,-2.40
2022-12-17T20:43:40.837Z,-2.30
2022-12-17T20:46:09.596Z,-2.30
2022-12-17T20:48:39.956Z,-2.40
2022-12-17T20:51:07.942Z,-2.40
2022-12-17T20:53:35.704Z,-2.30
2022-12-17T20:56:04.428Z,-2.30
2022-12-17T20:58:33.948Z,-2.40
2022-12-17T21:01:03.888Z,-2.30
2022-12-17T21:03:33.064Z,-2.30
2022-12-17T21:06:06.194Z,-2.30
2022-12-17T21:08:33.047Z,-2.30
2022-12-17T21:11:02.131Z,-2.30
2022-12-17T21:13:33.788Z,-2.30
2022-12-17T21:16:01.690Z,-2.20
2022-12-17T21:18:29.092Z,-2.30
2022-12-17T21:20:55.832Z,-2.30
2022-12-17T21:23:22.602Z,-2.30
2022-12-17T21:25:57.000Z,-2.30
2022-12-17T21:28:26.876Z,-2.30
2022-12-17T21:30:53.699Z,-2.30
2022-12-17T21:33:22.991Z,-2.40
2022-12-17T21:35:49.926Z,-2.40
2022-12-17T21:38:16.754Z,-2.50
2022-12-17T21:40:43.510Z,-2.60
2022-12-17T21:43:12.347Z,-2.60
2022-12-17T21:45:42.161Z,-2.60
2022-12-17T21:48:15.086Z,-2.50
2022-12-17T21:50:45.670Z,-2.60
2022-12-17T21:53:13.933Z,-2.60
2022-12-17T21:55:43.289Z,-2.60
2022-12-17T21:58:11.318Z,-2.60
2022-12-17T22:00:40.766Z,-2.60
2022-12-17T22:03:07.669Z,-2.60
2022-12-17T22:05:37.699Z,-2.60
2022-12-17T22:08:06.820Z,-2.60
2022-12-17T22:10:45.600Z,-2.60
2022-12-17T22:13:37.856Z,-2.60
2022-12-17T22:16:08.027Z,-2.60
2022-12-17T22:18:34.830Z,-2.60
2022-12-17T22:21:02.057Z,-2.60
2022-12-17T22:23:28.763Z,-2.60
2022-12-17T22:25:55.807Z,-2.70
2022-12-17T22:28:24.871Z,-2.60
2022-12-17T22:31:11.057Z,-2.60
2022-12-17T22:34:02.563Z,-2.60
2022-12-17T22:38:25.597Z,-2.60
2022-12-17T22:40:47.384Z,-2.60
2022-12-17T22:44:35.261Z,-2.60
2022-12-17T22:45:11.997Z,-2.60
2022-12-17T22:47:39.424Z,-2.70
2022-12-17T22:50:08.682Z,-2.70
2022-12-17T22:52:38.282Z,-2.80
2022-12-17T22:55:05.732Z,-2.80
2022-12-17T22:57:37.358Z,-2.80
2022-12-17T23:00:25.218Z,-2.80
2022-12-17T23:02:53.616Z,-2.80
2022-12-17T23:05:21.371Z,-2.80
2022-12-17T23:07:48.367Z,-2.90
2022-12-17T23:10:17.600Z,-2.90
2022-12-17T23:12:50.747Z,-2.90
2022-12-17T23:15:32.607Z,-2.90
2022-12-17T23:18:00.665Z,-2.90
2022-12-17T23:20:28.338Z,-2.90
2022-12-17T23:22:55.352Z,-3.00
2022-12-17T23:25:22.298Z,-3.00
2022-12-17T23:27:49.181Z,-3.00
2022-12-17T23:30:16.549Z,-3.00
2022-12-17T23:32:43.982Z,-2.90
2022-12-17T23:35:13.464Z,-2.90
2022-12-17T23:37:40.907Z,-3.00
2022-12-17T23:40:09.258Z,-3.00
2022-12-17T23:42:36.013Z,-3.00
2022-12-17T23:45:06.064Z,-3.00
2022-12-17T23:47:32.936Z,-3.00
2022-12-17T23:50:01.825Z,-3.10
2022-12-17T23:52:28.669Z,-3.10
2022-12-17T23:54:55.473Z,-3.20
2022-12-17T23:57:22.273Z,-3.10
2022-12-17T23:59:49.045Z,-3.20
